Haddenham, United Kingdom
Current Conditions -  °F | °C
As of 12:50 AM on Tuesday 27 Jan 2015 (Local Time) from EGUB Reporting Station
Clear Clear  
Wind Chill: 32°   Ceiling: Unl
Heat Index: 32°   Visibility: 6mi
Dew Point: 30°   Wind: 2mph
Humidity: 93%   Direction: 220°SW
Pressure: 30.39"   Gusts: NA
Location:  51.77°N, 0.93°W
Report Text: EGUB 270050Z AUTO 22002KT 9999 // NCD 00/M01 Q1029
Loading
Personal Weather Stations






























Interactive Weather Map New forecast layout! Learn more

10-Day Weather Forecast

Advertisements
Track Severe Weather on mobile